createdAt,value
2022-07-29T00:02:25.579Z,20.51
2022-07-29T00:04:52.381Z,20.47
2022-07-29T00:07:19.335Z,20.35
2022-07-29T00:09:51.167Z,20.18
2022-07-29T00:12:25.464Z,20.06
2022-07-29T00:14:55.790Z,20.13
2022-07-29T00:17:23.398Z,20.15
2022-07-29T00:19:50.077Z,20.10
2022-07-29T00:22:21.052Z,19.92
2022-07-29T00:24:50.232Z,19.96
2022-07-29T00:27:17.700Z,19.92
2022-07-29T00:29:45.701Z,19.87
2022-07-29T00:32:12.472Z,19.75
2022-07-29T00:34:54.582Z,19.67
2022-07-29T00:37:21.255Z,19.66
2022-07-29T00:39:48.480Z,19.61
2022-07-29T00:42:15.157Z,19.57
2022-07-29T00:44:42.671Z,19.58
2022-07-29T00:47:11.438Z,19.58
2022-07-29T00:49:40.117Z,19.54
2022-07-29T00:52:08.261Z,19.41
2022-07-29T00:54:39.129Z,19.32
2022-07-29T00:57:12.437Z,19.27
2022-07-29T00:59:39.246Z,19.27
2022-07-29T01:02:06.157Z,19.28
2022-07-29T01:04:33.286Z,19.30
2022-07-29T01:07:02.895Z,19.30
2022-07-29T01:09:42.928Z,19.19
2022-07-29T01:12:22.420Z,19.05
2022-07-29T01:14:51.044Z,19.15
2022-07-29T01:17:25.199Z,19.08
2022-07-29T01:20:07.343Z,19.06
2022-07-29T01:22:35.021Z,19.06
2022-07-29T01:25:32.089Z,18.98
2022-07-29T01:28:13.931Z,18.88
2022-07-29T01:30:43.045Z,18.81
2022-07-29T01:33:34.997Z,18.83
2022-07-29T01:36:06.803Z,18.79
2022-07-29T01:38:36.121Z,18.79
2022-07-29T01:41:16.072Z,18.81
2022-07-29T01:43:50.629Z,18.87
2022-07-29T01:46:25.423Z,18.92
2022-07-29T01:48:59.631Z,18.86
2022-07-29T01:51:34.976Z,18.89
2022-07-29T01:54:17.809Z,18.87
2022-07-29T01:56:48.351Z,18.81
2022-07-29T01:59:17.137Z,18.67
2022-07-29T02:01:46.715Z,18.61
2022-07-29T02:04:29.537Z,18.60
2022-07-29T02:07:01.991Z,18.72
2022-07-29T02:09:31.586Z,18.80
2022-07-29T02:12:00.559Z,18.84
2022-07-29T02:14:32.290Z,18.90
2022-07-29T02:17:01.860Z,18.84
2022-07-29T02:19:30.493Z,18.84
2022-07-29T02:21:58.674Z,18.90
2022-07-29T02:24:26.953Z,18.92
2022-07-29T02:26:56.966Z,18.88
2022-07-29T02:29:26.045Z,18.93
2022-07-29T02:31:55.455Z,18.95
2022-07-29T02:34:23.364Z,18.91
2022-07-29T02:36:51.585Z,18.86
2022-07-29T02:39:19.167Z,18.74
2022-07-29T02:41:51.028Z,18.78
2022-07-29T02:44:20.894Z,18.83
2022-07-29T02:46:53.182Z,18.89
2022-07-29T02:49:36.088Z,18.94
2022-07-29T02:52:08.768Z,18.92
2022-07-29T02:54:52.708Z,18.94
2022-07-29T02:57:28.518Z,18.93
2022-07-29T03:00:00.311Z,18.90
2022-07-29T03:02:28.931Z,18.76
2022-07-29T03:05:00.413Z,18.77
2022-07-29T03:07:28.349Z,18.64
2022-07-29T03:09:55.763Z,18.56
2022-07-29T03:12:23.836Z,18.52
2022-07-29T03:14:50.797Z,18.61
2022-07-29T03:17:17.751Z,18.66
2022-07-29T03:19:44.962Z,18.68
2022-07-29T03:22:12.087Z,18.66
2022-07-29T03:24:39.232Z,18.66
2022-07-29T03:27:06.757Z,18.68
2022-07-29T03:29:34.689Z,18.67
2022-07-29T03:32:07.855Z,18.66
2022-07-29T03:34:34.902Z,18.68
2022-07-29T03:37:01.551Z,18.67
2022-07-29T03:39:32.437Z,18.65
2022-07-29T03:42:02.209Z,18.60
2022-07-29T03:44:30.231Z,18.59
2022-07-29T03:47:01.019Z,18.56
2022-07-29T03:49:28.954Z,18.54
2022-07-29T03:51:55.940Z,18.42
2022-07-29T03:54:23.632Z,18.31
2022-07-29T03:56:53.272Z,18.21
2022-07-29T03:59:22.385Z,18.30
2022-07-29T04:01:50.076Z,18.37
2022-07-29T04:04:17.724Z,18.40
2022-07-29T04:06:48.226Z,18.38
2022-07-29T04:09:15.223Z,18.38
2022-07-29T04:12:02.408Z,18.34
2022-07-29T04:14:29.952Z,18.28
2022-07-29T04:16:56.600Z,18.38
2022-07-29T04:19:23.613Z,18.44
2022-07-29T04:21:50.479Z,18.46
2022-07-29T04:24:20.860Z,18.50
2022-07-29T04:26:48.038Z,18.53
2022-07-29T04:29:15.521Z,18.55
2022-07-29T04:31:43.080Z,18.55
2022-07-29T04:34:10.302Z,18.55
2022-07-29T04:36:37.225Z,18.56
2022-07-29T04:39:04.691Z,18.60
2022-07-29T04:41:33.329Z,18.64
2022-07-29T04:44:06.843Z,18.63
2022-07-29T04:46:34.545Z,18.64
2022-07-29T04:49:01.555Z,18.62
2022-07-29T04:51:28.652Z,18.68
2022-07-29T04:53:55.372Z,18.70
2022-07-29T04:56:22.031Z,18.71
2022-07-29T04:58:48.759Z,18.70
2022-07-29T05:01:15.749Z,18.72
2022-07-29T05:03:42.594Z,18.70
2022-07-29T05:06:09.298Z,18.72
2022-07-29T05:08:35.975Z,18.69
2022-07-29T05:11:12.033Z,18.72
2022-07-29T05:13:46.006Z,18.71
2022-07-29T05:16:14.363Z,18.72
2022-07-29T05:18:41.494Z,18.72
2022-07-29T05:21:08.190Z,18.78
2022-07-29T05:23:35.133Z,18.80
2022-07-29T05:26:02.062Z,18.83
2022-07-29T05:28:28.879Z,18.86
2022-07-29T05:30:55.693Z,18.90
2022-07-29T05:33:35.606Z,18.94
2022-07-29T05:36:07.890Z,18.96
2022-07-29T05:38:36.532Z,18.95
2022-07-29T05:41:03.996Z,18.97
2022-07-29T05:43:30.973Z,18.98
2022-07-29T05:45:58.129Z,19.16
2022-07-29T05:48:25.383Z,19.19
2022-07-29T05:50:52.113Z,19.19
2022-07-29T05:53:20.362Z,19.25
2022-07-29T05:55:48.444Z,19.28
2022-07-29T05:58:15.389Z,19.37
2022-07-29T06:00:42.232Z,19.42
2022-07-29T06:03:09.297Z,19.39
2022-07-29T06:05:35.979Z,19.41
2022-07-29T06:08:02.723Z,19.54
2022-07-29T06:10:29.636Z,19.65
2022-07-29T06:12:56.432Z,19.69
2022-07-29T06:15:23.239Z,19.71
2022-07-29T06:18:00.721Z,19.75
2022-07-29T06:20:31.450Z,19.74
2022-07-29T06:22:59.263Z,19.74
2022-07-29T06:25:26.203Z,19.77
2022-07-29T06:27:53.300Z,19.78
2022-07-29T06:30:20.092Z,19.82
2022-07-29T06:32:47.207Z,19.85
2022-07-29T06:38:00.692Z,19.89
2022-07-29T06:40:42.730Z,19.95
2022-07-29T06:43:09.771Z,19.99
2022-07-29T06:45:36.602Z,20.12
2022-07-29T06:48:03.635Z,20.14
2022-07-29T06:50:30.306Z,20.11
2022-07-29T06:52:57.116Z,20.13
2022-07-29T06:55:25.142Z,20.16
2022-07-29T06:57:52.425Z,20.17
2022-07-29T07:00:19.312Z,20.19
2022-07-29T07:02:46.203Z,20.23
2022-07-29T07:05:14.142Z,20.25
2022-07-29T07:07:40.858Z,20.24
2022-07-29T07:10:08.019Z,20.24
2022-07-29T07:12:34.699Z,20.22
2022-07-29T07:15:01.800Z,20.24
2022-07-29T07:17:28.512Z,20.33
2022-07-29T07:19:55.143Z,20.35
2022-07-29T07:22:21.953Z,20.30
2022-07-29T07:24:48.616Z,20.34
2022-07-29T07:27:15.494Z,20.26
2022-07-29T07:29:42.509Z,20.22
2022-07-29T07:32:11.101Z,20.24
2022-07-29T07:34:38.984Z,20.24
2022-07-29T07:37:06.387Z,20.22
2022-07-29T07:39:33.125Z,20.21
2022-07-29T07:42:00.135Z,20.17
2022-07-29T07:44:27.423Z,20.18
2022-07-29T07:46:54.554Z,20.16
2022-07-29T07:49:21.768Z,20.19
2022-07-29T07:51:50.956Z,20.23
2022-07-29T07:54:20.801Z,20.22
2022-07-29T07:56:53.034Z,20.24
2022-07-29T07:59:20.168Z,20.25
2022-07-29T08:01:48.409Z,20.25
2022-07-29T08:04:27.361Z,20.26
2022-07-29T08:06:56.720Z,20.41
2022-07-29T08:09:31.187Z,20.33
2022-07-29T08:12:00.347Z,20.33
2022-07-29T08:14:27.326Z,20.35
2022-07-29T08:16:54.758Z,20.35
2022-07-29T08:19:21.473Z,20.40
2022-07-29T08:21:48.782Z,20.37
2022-07-29T08:24:30.901Z,20.37
2022-07-29T08:27:00.838Z,20.33
2022-07-29T08:29:27.449Z,20.33
2022-07-29T08:31:54.433Z,20.34
2022-07-29T08:34:28.098Z,20.38
2022-07-29T08:36:55.715Z,20.39
2022-07-29T08:39:23.327Z,20.37
2022-07-29T08:41:57.434Z,20.39
2022-07-29T08:44:30.857Z,20.44
2022-07-29T08:46:58.364Z,20.41
2022-07-29T08:49:25.319Z,20.37
2022-07-29T08:51:54.897Z,20.40
2022-07-29T08:54:24.432Z,20.40
2022-07-29T08:56:52.166Z,20.45
2022-07-29T08:59:23.872Z,20.52
2022-07-29T09:01:55.187Z,20.55
2022-07-29T09:04:25.872Z,20.58
2022-07-29T09:06:55.323Z,20.56
2022-07-29T09:09:22.532Z,20.54
2022-07-29T09:11:49.439Z,20.57
2022-07-29T09:14:16.377Z,20.60
2022-07-29T09:17:01.068Z,20.65
2022-07-29T09:19:31.493Z,20.72
2022-07-29T09:22:03.103Z,20.76
2022-07-29T09:24:40.654Z,20.82
2022-07-29T09:27:10.745Z,20.87
2022-07-29T09:29:38.565Z,20.97
2022-07-29T09:32:09.496Z,21.00
2022-07-29T09:34:36.181Z,21.03
2022-07-29T09:37:03.883Z,21.09
2022-07-29T09:39:33.064Z,21.15
2022-07-29T09:42:02.614Z,21.15
2022-07-29T09:44:43.502Z,21.23
2022-07-29T09:47:10.346Z,21.33
2022-07-29T09:49:53.423Z,21.39
2022-07-29T09:52:21.323Z,21.45
2022-07-29T09:54:48.133Z,21.47
2022-07-29T09:57:31.251Z,21.48
2022-07-29T10:00:02.912Z,21.47
2022-07-29T10:02:31.967Z,21.53
2022-07-29T10:05:00.497Z,21.53
2022-07-29T10:07:43.518Z,21.60
2022-07-29T10:10:10.937Z,21.63
2022-07-29T10:12:51.824Z,21.83
2022-07-29T10:15:19.055Z,21.81
2022-07-29T10:17:46.557Z,21.90
2022-07-29T10:20:16.374Z,21.92
2022-07-29T10:22:52.900Z,21.99
2022-07-29T10:25:21.599Z,22.03
2022-07-29T10:27:49.822Z,22.32
2022-07-29T10:30:17.850Z,22.33
2022-07-29T10:33:15.795Z,22.54
2022-07-29T10:35:54.834Z,22.72
2022-07-29T10:38:48.015Z,22.83
2022-07-29T10:41:47.623Z,22.92
2022-07-29T10:44:22.918Z,23.23
2022-07-29T10:46:52.525Z,23.32
2022-07-29T10:49:24.761Z,23.31
2022-07-29T10:52:08.229Z,23.44
2022-07-29T10:54:35.898Z,23.47
2022-07-29T10:57:17.843Z,23.42
2022-07-29T10:59:46.547Z,23.53
2022-07-29T11:02:43.947Z,23.73
2022-07-29T11:05:18.791Z,23.84
2022-07-29T11:08:20.418Z,23.88
2022-07-29T11:10:49.700Z,23.92
2022-07-29T11:13:47.358Z,23.96
2022-07-29T11:16:16.442Z,24.19
2022-07-29T11:19:14.341Z,24.22
2022-07-29T11:21:54.124Z,24.28
2022-07-29T11:27:20.033Z,24.64
2022-07-29T11:29:58.667Z,24.75
2022-07-29T11:32:37.660Z,24.67
2022-07-29T11:35:38.441Z,24.71
2022-07-29T11:38:31.942Z,24.70
2022-07-29T11:41:14.520Z,24.77
2022-07-29T11:43:50.639Z,24.80
2022-07-29T11:46:39.567Z,24.83
2022-07-29T11:49:09.829Z,24.86
2022-07-29T11:51:48.295Z,25.17
2022-07-29T11:54:18.805Z,25.24
2022-07-29T11:56:55.011Z,25.50
2022-07-29T11:59:22.469Z,25.40
2022-07-29T12:02:18.541Z,25.49
2022-07-29T12:04:57.855Z,25.60
2022-07-29T12:07:01.248Z,24.45
2022-07-29T12:07:35.767Z,25.55
2022-07-29T12:10:04.541Z,25.55
2022-07-29T12:12:33.555Z,25.70
2022-07-29T12:15:12.272Z,25.77
2022-07-29T12:17:40.339Z,25.83
2022-07-29T12:20:07.303Z,25.94
2022-07-29T12:22:40.288Z,25.97
2022-07-29T12:25:32.410Z,25.96
2022-07-29T12:28:03.437Z,26.05
2022-07-29T12:30:47.144Z,26.10
2022-07-29T12:33:16.396Z,26.24
2022-07-29T12:35:47.814Z,26.33
2022-07-29T12:38:21.571Z,26.57
2022-07-29T12:40:49.969Z,26.54
2022-07-29T12:43:19.445Z,26.53
2022-07-29T12:45:49.453Z,26.46
2022-07-29T12:48:18.040Z,26.58
2022-07-29T12:50:54.897Z,26.75
2022-07-29T12:53:37.269Z,26.79
2022-07-29T12:56:48.594Z,26.71
2022-07-29T12:59:46.586Z,26.89
2022-07-29T13:02:58.327Z,26.97
2022-07-29T13:06:08.266Z,26.99
2022-07-29T13:09:27.281Z,26.97
2022-07-29T13:12:52.232Z,26.93
2022-07-29T13:16:18.283Z,27.01
2022-07-29T13:19:29.313Z,26.89
2022-07-29T13:22:30.260Z,26.90
2022-07-29T13:25:51.263Z,26.84
2022-07-29T13:28:51.598Z,27.19
2022-07-29T13:32:01.586Z,27.29
2022-07-29T13:35:15.298Z,27.30
2022-07-29T13:38:31.095Z,27.30
2022-07-29T13:41:31.597Z,27.31
2022-07-29T13:44:42.282Z,27.37
2022-07-29T13:47:52.275Z,27.43
2022-07-29T13:50:52.352Z,27.68
2022-07-29T13:54:02.268Z,27.65
2022-07-29T13:57:02.342Z,27.61
2022-07-29T14:00:12.288Z,27.55
2022-07-29T14:03:22.292Z,27.46
2022-07-29T14:06:32.263Z,27.55
2022-07-29T14:09:42.303Z,27.59
2022-07-29T14:12:52.292Z,27.66
2022-07-29T14:15:52.396Z,27.78
2022-07-29T14:19:05.287Z,27.80
2022-07-29T14:22:05.391Z,27.77
2022-07-29T14:25:15.770Z,27.84
2022-07-29T14:28:15.383Z,27.76
2022-07-29T14:31:26.355Z,27.73
2022-07-29T14:34:39.345Z,27.65
2022-07-29T14:37:49.307Z,27.59
2022-07-29T14:40:59.321Z,27.74
2022-07-29T14:44:11.338Z,27.78
2022-07-29T14:47:21.313Z,27.73
2022-07-29T14:50:32.292Z,27.81
2022-07-29T14:53:33.761Z,27.89
2022-07-29T14:56:47.036Z,27.93
2022-07-29T14:59:47.399Z,27.86
2022-07-29T15:03:02.398Z,27.94
2022-07-29T15:06:12.358Z,27.92
2022-07-29T15:09:22.365Z,27.88
2022-07-29T15:12:22.422Z,27.87
2022-07-29T15:15:32.353Z,27.95
2022-07-29T15:18:42.348Z,27.98
2022-07-29T15:21:53.322Z,27.95
2022-07-29T15:24:53.395Z,27.83
2022-07-29T15:28:03.363Z,27.75
2022-07-29T15:31:03.425Z,27.80
2022-07-29T15:34:13.357Z,27.80
2022-07-29T15:37:23.353Z,27.74
2022-07-29T15:40:23.685Z,27.82
2022-07-29T15:43:33.366Z,27.81
2022-07-29T15:46:58.623Z,27.80
2022-07-29T15:49:58.485Z,27.73
2022-07-29T15:53:08.378Z,27.66
2022-07-29T15:56:18.363Z,27.67
2022-07-29T15:59:28.408Z,27.71
2022-07-29T16:02:38.371Z,27.72
2022-07-29T16:05:52.386Z,27.66
2022-07-29T16:08:52.430Z,27.60
2022-07-29T16:12:03.389Z,27.60
2022-07-29T16:15:24.380Z,27.58
2022-07-29T16:18:30.563Z,27.51
2022-07-29T16:21:41.372Z,27.47
2022-07-29T16:24:41.838Z,27.48
2022-07-29T16:27:51.391Z,27.49
2022-07-29T16:30:57.962Z,27.43
2022-07-29T16:34:08.406Z,27.40
2022-07-29T16:37:08.748Z,27.39
2022-07-29T16:40:20.387Z,27.35
2022-07-29T16:43:30.390Z,27.33
2022-07-29T16:46:30.570Z,27.39
2022-07-29T16:49:40.402Z,27.36
2022-07-29T16:52:50.408Z,27.25
2022-07-29T16:55:50.693Z,27.14
2022-07-29T16:59:01.422Z,27.09
2022-07-29T17:02:12.443Z,27.02
2022-07-29T17:05:24.464Z,27.02
2022-07-29T17:08:34.423Z,26.94
2022-07-29T17:11:53.687Z,26.78
2022-07-29T17:15:04.416Z,26.74
2022-07-29T17:18:14.448Z,26.60
2022-07-29T17:21:25.417Z,26.62
2022-07-29T17:24:35.441Z,26.53
2022-07-29T17:27:35.915Z,26.52
2022-07-29T17:30:46.428Z,26.46
2022-07-29T17:33:59.911Z,26.45
2022-07-29T17:37:09.504Z,26.30
2022-07-29T17:40:22.445Z,26.17
2022-07-29T17:43:35.458Z,26.11
2022-07-29T17:46:40.664Z,26.06
2022-07-29T17:49:51.417Z,25.98
2022-07-29T17:53:05.401Z,25.92
2022-07-29T17:56:25.449Z,25.77
2022-07-29T17:59:35.447Z,25.77
2022-07-29T18:02:46.503Z,25.69
2022-07-29T18:05:46.519Z,25.59
2022-07-29T18:08:57.461Z,25.50
2022-07-29T18:12:07.446Z,25.43
2022-07-29T18:15:08.185Z,25.37
2022-07-29T18:18:17.453Z,25.36
2022-07-29T18:21:38.126Z,25.27
2022-07-29T18:24:48.504Z,25.18
2022-07-29T18:28:00.460Z,25.18
2022-07-29T18:31:10.563Z,24.95
2022-07-29T18:34:21.470Z,24.77
2022-07-29T18:38:01.820Z,24.49
2022-07-29T18:41:01.474Z,24.26
2022-07-29T18:44:01.640Z,24.08
2022-07-29T18:47:14.468Z,23.85
2022-07-29T18:50:15.519Z,23.76
2022-07-29T18:53:28.473Z,23.77
2022-07-29T18:56:29.661Z,23.77
2022-07-29T18:59:40.481Z,23.73
2022-07-29T19:02:53.731Z,23.63
2022-07-29T19:05:53.828Z,23.53
2022-07-29T19:09:03.488Z,23.46
2022-07-29T19:12:13.514Z,23.46
2022-07-29T19:15:24.517Z,23.47
2022-07-29T19:18:34.509Z,23.46
2022-07-29T19:21:35.937Z,23.45
2022-07-29T19:24:45.489Z,23.44
2022-07-29T19:27:55.516Z,23.43
2022-07-29T19:31:05.589Z,23.42
2022-07-29T19:34:17.501Z,23.40
2022-07-29T19:37:17.792Z,23.41
2022-07-29T19:40:27.501Z,23.42
2022-07-29T19:43:51.085Z,23.41
2022-07-29T19:47:03.528Z,23.40
2022-07-29T19:50:04.307Z,23.39
2022-07-29T19:53:15.521Z,23.32
2022-07-29T19:56:34.533Z,23.71
2022-07-29T19:59:38.939Z,23.53
2022-07-29T20:02:49.611Z,23.49
2022-07-29T20:05:52.462Z,23.09
2022-07-29T20:09:02.524Z,22.81
2022-07-29T20:12:14.540Z,22.75
2022-07-29T20:15:26.544Z,22.74
2022-07-29T20:18:39.558Z,22.30
2022-07-29T20:21:49.548Z,22.41
2022-07-29T20:24:59.543Z,21.79
2022-07-29T20:28:02.624Z,21.46
2022-07-29T20:31:18.571Z,20.67
2022-07-29T20:34:28.544Z,20.79
2022-07-29T20:37:28.929Z,20.99
2022-07-29T20:40:38.650Z,20.83
2022-07-29T20:43:39.323Z,20.54
2022-07-29T20:46:49.563Z,20.00
2022-07-29T20:50:00.547Z,19.76
2022-07-29T20:53:00.660Z,19.56
2022-07-29T20:56:10.561Z,19.47
2022-07-29T20:59:00.561Z,19.31
2022-07-29T21:01:41.427Z,19.26
2022-07-29T21:04:32.650Z,19.22
2022-07-29T21:07:22.558Z,19.19
2022-07-29T21:10:02.613Z,19.16
2022-07-29T21:12:52.576Z,19.11
2022-07-29T21:15:42.591Z,19.10
2022-07-29T21:18:32.411Z,19.08
2022-07-29T21:21:23.936Z,19.15
2022-07-29T21:24:04.489Z,19.15
2022-07-29T21:30:00.228Z,19.05
2022-07-29T21:32:40.717Z,19.07
2022-07-29T21:38:38.718Z,19.00
2022-07-29T21:41:28.603Z,18.96
2022-07-29T21:44:09.682Z,19.02
2022-07-29T21:46:59.665Z,19.00
2022-07-29T21:49:49.810Z,19.03
2022-07-29T21:52:40.575Z,19.02
2022-07-29T21:55:37.644Z,18.97
2022-07-29T22:01:39.078Z,18.89
2022-07-29T22:04:22.110Z,18.88
2022-07-29T22:07:11.582Z,18.84
2022-07-29T22:09:51.886Z,19.02
2022-07-29T22:12:41.587Z,18.99
2022-07-29T22:15:32.586Z,18.98
2022-07-29T22:18:22.581Z,18.85
2022-07-29T22:21:12.572Z,18.80
2022-07-29T22:23:52.672Z,18.85
2022-07-29T22:26:42.570Z,18.77
2022-07-29T22:29:22.646Z,18.84
2022-07-29T22:32:12.587Z,18.87
2022-07-29T22:35:02.568Z,18.80
2022-07-29T22:37:52.630Z,18.90
2022-07-29T22:40:42.581Z,18.81
2022-07-29T22:43:36.564Z,18.79
2022-07-29T22:46:30.642Z,18.86
2022-07-29T22:49:10.991Z,18.76
2022-07-29T22:52:00.598Z,18.76
2022-07-29T22:54:57.618Z,18.67
2022-07-29T22:57:47.602Z,18.65
2022-07-29T23:00:27.680Z,18.57
2022-07-29T23:03:17.631Z,18.58
2022-07-29T23:05:57.645Z,18.57
2022-07-29T23:08:47.630Z,18.64
2022-07-29T23:11:27.686Z,18.56
2022-07-29T23:14:17.594Z,18.51
2022-07-29T23:16:57.922Z,18.45
2022-07-29T23:19:47.596Z,18.38
2022-07-29T23:22:37.606Z,18.40
2022-07-29T23:25:27.621Z,18.24
2022-07-29T23:28:11.658Z,18.17
2022-07-29T23:31:02.637Z,18.10
2022-07-29T23:33:52.611Z,17.99
2022-07-29T23:36:42.622Z,18.05
2022-07-29T23:39:22.707Z,17.97
2022-07-29T23:42:13.660Z,17.90
2022-07-29T23:44:53.686Z,17.81
2022-07-29T23:47:43.639Z,17.76
2022-07-29T23:50:23.674Z,17.68
2022-07-29T23:53:13.601Z,17.71
2022-07-29T23:56:07.595Z,17.73
2022-07-29T23:58:57.673Z,17.88
